createdAt,value
2023-04-27T00:01:13.581Z,70.00
2023-04-27T00:03:41.434Z,70.30
2023-04-27T00:06:09.568Z,70.30
2023-04-27T00:08:36.429Z,71.20
2023-04-27T00:11:03.242Z,70.40
2023-04-27T00:13:29.986Z,70.40
2023-04-27T00:15:56.782Z,70.50
2023-04-27T00:18:23.493Z,70.50
2023-04-27T00:20:50.246Z,70.70
2023-04-27T00:23:17.025Z,70.70
2023-04-27T00:25:43.819Z,70.70
2023-04-27T00:28:10.516Z,70.80
2023-04-27T00:30:37.262Z,70.90
2023-04-27T00:33:04.061Z,70.90
2023-04-27T00:35:32.861Z,70.90
2023-04-27T00:37:59.691Z,71.20
2023-04-27T00:40:26.915Z,71.10
2023-04-27T00:42:53.665Z,71.10
2023-04-27T00:45:20.551Z,71.30
2023-04-27T00:47:47.454Z,71.40
2023-04-27T00:50:14.929Z,71.40
2023-04-27T00:52:42.120Z,71.50
2023-04-27T00:55:09.490Z,71.70
2023-04-27T00:57:36.177Z,71.70
2023-04-27T01:00:07.415Z,71.80
2023-04-27T01:02:36.014Z,71.90
2023-04-27T01:05:03.720Z,72.00
2023-04-27T01:07:30.414Z,72.00
2023-04-27T01:09:58.090Z,71.90
2023-04-27T01:12:25.033Z,71.90
2023-04-27T01:14:51.703Z,71.90
2023-04-27T01:17:18.388Z,72.00
2023-04-27T01:19:45.157Z,72.10
2023-04-27T01:22:12.057Z,72.10
2023-04-27T01:24:38.777Z,72.20
2023-04-27T01:27:05.707Z,72.10
2023-04-27T01:29:32.686Z,72.20
2023-04-27T01:31:59.408Z,72.20
2023-04-27T01:34:26.202Z,72.30
2023-04-27T01:36:52.792Z,72.30
2023-04-27T01:39:21.456Z,72.40
2023-04-27T01:41:48.268Z,72.40
2023-04-27T01:44:14.918Z,72.50
2023-04-27T01:46:41.852Z,72.50
2023-04-27T01:49:08.727Z,72.60
2023-04-27T01:51:35.633Z,72.60
2023-04-27T01:54:02.301Z,72.70
2023-04-27T01:56:28.988Z,72.80
2023-04-27T01:58:56.028Z,72.80
2023-04-27T02:01:22.938Z,72.80
2023-04-27T02:03:49.991Z,72.80
2023-04-27T02:06:16.786Z,72.90
2023-04-27T02:08:43.460Z,72.80
2023-04-27T02:11:10.228Z,72.90
2023-04-27T02:13:37.666Z,72.90
2023-04-27T02:16:05.227Z,72.90
2023-04-27T02:18:33.664Z,73.00
2023-04-27T02:21:00.723Z,73.10
2023-04-27T02:23:27.552Z,73.00
2023-04-27T02:25:54.207Z,73.10
2023-04-27T02:28:20.900Z,73.10
2023-04-27T02:30:48.050Z,73.10
2023-04-27T02:33:14.740Z,73.20
2023-04-27T02:35:41.437Z,73.20
2023-04-27T02:38:08.148Z,73.30
2023-04-27T02:40:37.608Z,73.40
2023-04-27T02:43:06.445Z,73.40
2023-04-27T02:45:37.446Z,73.40
2023-04-27T02:48:05.996Z,73.80
2023-04-27T02:50:34.104Z,73.70
2023-04-27T02:53:01.207Z,73.70
2023-04-27T02:55:28.918Z,73.90
2023-04-27T02:57:55.767Z,74.00
2023-04-27T03:00:22.924Z,74.10
2023-04-27T03:02:49.674Z,74.20
2023-04-27T03:05:16.827Z,74.20
2023-04-27T03:07:43.482Z,74.40
2023-04-27T03:10:10.878Z,74.40
2023-04-27T03:12:37.624Z,74.50
2023-04-27T03:15:04.563Z,74.60
2023-04-27T03:17:31.394Z,74.70
2023-04-27T03:19:58.057Z,74.60
2023-04-27T03:22:24.702Z,74.60
2023-04-27T03:24:51.329Z,74.70
2023-04-27T03:27:18.012Z,74.70
2023-04-27T03:29:44.784Z,74.80
2023-04-27T03:32:11.601Z,74.80
2023-04-27T03:34:38.434Z,74.90
2023-04-27T03:37:06.290Z,75.00
2023-04-27T03:39:36.899Z,75.00
2023-04-27T03:42:04.243Z,75.00
2023-04-27T03:44:36.206Z,75.10
2023-04-27T03:47:03.607Z,75.20
2023-04-27T03:49:30.539Z,75.20
2023-04-27T03:51:57.311Z,75.30
2023-04-27T03:54:23.929Z,75.40
2023-04-27T03:56:50.597Z,75.50
2023-04-27T03:59:18.545Z,75.50
2023-04-27T04:01:49.309Z,75.60
2023-04-27T04:04:16.761Z,75.60
2023-04-27T04:06:43.536Z,75.70
2023-04-27T04:09:12.704Z,75.80
2023-04-27T04:11:40.197Z,75.90
2023-04-27T04:14:09.427Z,76.00
2023-04-27T04:16:36.175Z,76.00
2023-04-27T04:19:03.030Z,76.10
2023-04-27T04:21:29.688Z,76.10
2023-04-27T04:23:57.126Z,76.20
2023-04-27T04:26:24.772Z,76.20
2023-04-27T04:28:52.283Z,76.30
2023-04-27T04:31:19.132Z,76.30
2023-04-27T04:33:45.985Z,76.30
2023-04-27T04:36:15.199Z,76.40
2023-04-27T04:38:41.865Z,76.40
2023-04-27T04:41:10.430Z,76.50
2023-04-27T04:43:37.402Z,76.70
2023-04-27T04:46:07.126Z,76.80
2023-04-27T04:48:34.653Z,77.00
2023-04-27T04:51:01.379Z,77.20
2023-04-27T04:53:29.342Z,77.30
2023-04-27T04:55:56.414Z,77.40
2023-04-27T04:58:23.068Z,77.60
2023-04-27T05:00:49.683Z,77.80
2023-04-27T05:03:16.701Z,78.00
2023-04-27T05:05:43.435Z,78.20
2023-04-27T05:08:10.052Z,78.30
2023-04-27T05:10:36.709Z,78.70
2023-04-27T05:13:05.265Z,78.90
2023-04-27T05:15:33.214Z,79.20
2023-04-27T05:17:59.949Z,79.50
2023-04-27T05:20:26.560Z,79.70
2023-04-27T05:22:53.195Z,79.90
2023-04-27T05:25:19.815Z,80.20
2023-04-27T05:27:46.456Z,80.50
2023-04-27T05:30:13.594Z,80.70
2023-04-27T05:32:40.325Z,81.10
2023-04-27T05:35:07.345Z,82.10
2023-04-27T05:37:34.034Z,81.60
2023-04-27T05:40:00.706Z,81.80
2023-04-27T05:42:27.380Z,82.00
2023-04-27T05:44:54.277Z,82.10
2023-04-27T05:47:21.407Z,82.10
2023-04-27T05:49:52.661Z,82.30
2023-04-27T05:52:20.127Z,82.60
2023-04-27T05:54:50.890Z,82.20
2023-04-27T05:57:17.565Z,82.20
2023-04-27T05:59:44.258Z,81.90
2023-04-27T06:02:11.016Z,81.90
2023-04-27T06:04:38.256Z,82.10
2023-04-27T06:07:10.230Z,82.20
2023-04-27T06:09:37.425Z,82.50
2023-04-27T06:12:05.645Z,82.00
2023-04-27T06:14:33.364Z,81.90
2023-04-27T06:17:00.277Z,81.60
2023-04-27T06:19:26.933Z,81.20
2023-04-27T06:21:55.031Z,81.00
2023-04-27T06:24:22.394Z,80.70
2023-04-27T06:26:52.068Z,80.50
2023-04-27T06:29:18.779Z,81.50
2023-04-27T06:31:45.535Z,80.90
2023-04-27T06:34:12.166Z,81.60
2023-04-27T06:36:38.862Z,82.50
2023-04-27T06:39:05.505Z,82.80
2023-04-27T06:41:33.709Z,83.10
2023-04-27T06:44:00.468Z,83.20
2023-04-27T06:46:27.428Z,82.80
2023-04-27T06:48:54.205Z,82.20
2023-04-27T06:51:20.838Z,82.10
2023-04-27T06:53:47.467Z,81.40
2023-04-27T06:56:14.132Z,81.00
2023-04-27T06:58:40.874Z,80.40
2023-04-27T07:01:07.660Z,80.40
2023-04-27T07:03:37.590Z,79.60
2023-04-27T07:06:04.613Z,77.20
2023-04-27T07:08:31.396Z,76.40
2023-04-27T07:10:58.180Z,75.30
2023-04-27T07:13:24.818Z,73.70
2023-04-27T07:15:57.969Z,72.90
2023-04-27T07:18:25.940Z,71.90
2023-04-27T07:20:52.614Z,71.60
2023-04-27T07:23:19.364Z,70.90
2023-04-27T07:25:46.309Z,69.10
2023-04-27T07:28:13.212Z,68.20
2023-04-27T07:30:40.549Z,67.20
2023-04-27T07:33:07.522Z,65.70
2023-04-27T07:35:34.239Z,65.40
2023-04-27T07:38:02.644Z,65.30
2023-04-27T07:40:30.750Z,65.10
2023-04-27T07:42:58.258Z,63.10
2023-04-27T07:45:31.894Z,62.70
2023-04-27T07:48:00.177Z,62.40
2023-04-27T07:50:28.430Z,61.60
2023-04-27T07:52:55.237Z,61.80
2023-04-27T07:55:23.493Z,60.60
2023-04-27T07:57:51.970Z,61.20
2023-04-27T08:00:19.118Z,61.10
2023-04-27T08:02:46.146Z,59.90
2023-04-27T08:05:16.706Z,60.00
2023-04-27T08:07:44.856Z,59.50
2023-04-27T08:10:12.270Z,58.50
2023-04-27T08:12:39.003Z,57.80
2023-04-27T08:15:07.463Z,56.90
2023-04-27T08:17:34.709Z,57.20
2023-04-27T08:20:01.532Z,57.00
2023-04-27T08:22:28.177Z,56.90
2023-04-27T08:24:54.844Z,56.60
2023-04-27T08:27:21.564Z,56.30
2023-04-27T08:29:48.932Z,55.70
2023-04-27T08:32:16.095Z,55.00
2023-04-27T08:34:44.799Z,54.30
2023-04-27T08:37:11.643Z,54.10
2023-04-27T08:39:38.475Z,54.50
2023-04-27T08:42:12.443Z,53.70
2023-04-27T08:44:43.365Z,51.70
2023-04-27T08:47:11.000Z,51.80
2023-04-27T08:49:38.604Z,52.10
2023-04-27T08:52:12.461Z,51.10
2023-04-27T08:54:39.142Z,50.10
2023-04-27T08:57:10.743Z,50.70
2023-04-27T08:59:37.671Z,48.50
2023-04-27T09:02:04.889Z,49.00
2023-04-27T09:04:41.834Z,48.60
2023-04-27T09:07:17.046Z,48.80
2023-04-27T09:09:44.983Z,48.60
2023-04-27T09:12:21.494Z,49.10
2023-04-27T09:15:03.990Z,48.20
2023-04-27T09:17:31.302Z,47.60
2023-04-27T09:20:10.149Z,47.80
2023-04-27T09:22:47.583Z,46.50
2023-04-27T09:25:28.921Z,47.00
2023-04-27T09:27:57.789Z,46.40
2023-04-27T09:30:25.585Z,47.90
2023-04-27T09:33:03.676Z,47.20
2023-04-27T09:35:32.510Z,46.90
2023-04-27T09:38:00.632Z,48.00
2023-04-27T09:40:32.094Z,48.20
2023-04-27T09:43:03.367Z,47.50
2023-04-27T09:45:30.403Z,47.20
2023-04-27T09:47:58.455Z,46.90
2023-04-27T09:50:25.783Z,46.40
2023-04-27T09:52:52.522Z,46.20
2023-04-27T09:55:25.560Z,45.90
2023-04-27T09:58:12.008Z,45.00
2023-04-27T10:01:18.796Z,44.20
2023-04-27T10:03:54.210Z,44.20
2023-04-27T10:06:53.700Z,44.00
2023-04-27T10:09:23.628Z,43.30
2023-04-27T10:11:52.321Z,44.80
2023-04-27T10:14:21.617Z,44.60
2023-04-27T10:16:56.459Z,44.30
2023-04-27T10:19:24.753Z,43.30
2023-04-27T10:22:03.474Z,44.20
2023-04-27T10:24:37.901Z,43.80
2023-04-27T10:27:09.533Z,43.10
2023-04-27T10:29:44.116Z,43.40
2023-04-27T10:32:25.134Z,42.00
2023-04-27T10:35:02.088Z,41.80
2023-04-27T10:37:39.964Z,41.50
2023-04-27T10:40:10.255Z,39.70
2023-04-27T10:42:37.040Z,39.50
2023-04-27T10:45:04.145Z,39.40
2023-04-27T10:47:42.260Z,39.10
2023-04-27T10:50:14.350Z,38.20
2023-04-27T10:52:46.092Z,38.50
2023-04-27T10:55:17.311Z,38.80
2023-04-27T10:57:55.274Z,39.00
2023-04-27T11:00:26.642Z,38.50
2023-04-27T11:02:54.961Z,39.20
2023-04-27T11:05:25.032Z,39.40
2023-04-27T11:07:52.832Z,39.80
2023-04-27T11:10:19.757Z,40.20
2023-04-27T11:12:46.765Z,40.60
2023-04-27T11:15:14.184Z,41.00
2023-04-27T11:17:41.425Z,40.80
2023-04-27T11:20:09.050Z,41.90
2023-04-27T11:22:46.071Z,41.10
2023-04-27T11:25:12.874Z,41.60
2023-04-27T11:27:40.933Z,41.60
2023-04-27T11:30:19.396Z,41.30
2023-04-27T11:32:46.182Z,42.40
2023-04-27T11:35:13.678Z,42.00
2023-04-27T11:37:40.606Z,42.20
2023-04-27T11:40:08.577Z,42.30
2023-04-27T11:42:35.706Z,42.10
2023-04-27T11:45:07.807Z,42.40
2023-04-27T11:47:35.846Z,42.80
2023-04-27T11:50:05.511Z,42.70
2023-04-27T11:52:33.590Z,42.90
2023-04-27T11:55:01.838Z,42.70
2023-04-27T11:57:30.427Z,43.20
2023-04-27T12:00:00.050Z,43.20
2023-04-27T12:02:28.641Z,43.10
2023-04-27T12:04:55.899Z,43.40
2023-04-27T12:07:22.718Z,43.40
2023-04-27T12:09:49.903Z,43.60
2023-04-27T12:12:22.144Z,44.20
2023-04-27T12:14:50.181Z,44.60
2023-04-27T12:17:17.241Z,44.70
2023-04-27T12:19:43.885Z,44.40
2023-04-27T12:22:11.034Z,44.20
2023-04-27T12:24:37.684Z,44.10
2023-04-27T12:27:05.100Z,44.00
2023-04-27T12:29:34.544Z,44.60
2023-04-27T12:32:01.399Z,44.70
2023-04-27T12:34:31.096Z,45.10
2023-04-27T12:36:57.804Z,45.20
2023-04-27T12:39:27.214Z,45.10
2023-04-27T12:41:54.231Z,44.70
2023-04-27T12:44:23.642Z,44.50
2023-04-27T12:46:50.599Z,44.60
2023-04-27T12:49:17.862Z,44.50
2023-04-27T12:51:45.540Z,44.60
2023-04-27T12:54:13.040Z,44.90
2023-04-27T12:56:39.993Z,44.70
2023-04-27T12:59:06.746Z,45.00
2023-04-27T13:01:33.843Z,45.30
2023-04-27T13:04:05.823Z,45.60
2023-04-27T13:06:32.993Z,45.60
2023-04-27T13:08:59.989Z,45.90
2023-04-27T13:11:27.222Z,46.00
2023-04-27T13:13:55.070Z,46.10
2023-04-27T13:16:24.937Z,46.40
2023-04-27T13:18:53.269Z,45.80
2023-04-27T13:21:20.407Z,46.00
2023-04-27T13:23:47.802Z,45.90
2023-04-27T13:26:15.820Z,46.00
2023-04-27T13:28:43.042Z,45.70
2023-04-27T13:31:10.075Z,45.50
2023-04-27T13:33:42.023Z,45.60
2023-04-27T13:36:12.748Z,45.50
2023-04-27T13:38:39.708Z,45.60
2023-04-27T13:41:06.868Z,45.70
2023-04-27T13:43:33.749Z,46.00
2023-04-27T13:46:01.806Z,46.10
2023-04-27T13:48:29.258Z,46.00
2023-04-27T13:50:56.345Z,46.10
2023-04-27T13:53:26.424Z,45.80
2023-04-27T13:55:54.983Z,46.10
2023-04-27T13:58:23.214Z,46.00
2023-04-27T14:00:52.748Z,46.20
2023-04-27T14:03:20.002Z,46.50
2023-04-27T14:05:48.765Z,46.30
2023-04-27T14:08:15.438Z,46.60
2023-04-27T14:10:42.133Z,46.80
2023-04-27T14:13:08.926Z,47.00
2023-04-27T14:15:37.280Z,47.20
2023-04-27T14:18:08.537Z,47.00
2023-04-27T14:20:36.785Z,46.70
2023-04-27T14:23:04.757Z,46.80
2023-04-27T14:25:35.181Z,46.40
2023-04-27T14:28:04.124Z,46.10
2023-04-27T14:30:35.228Z,46.00
2023-04-27T14:33:02.882Z,46.40
2023-04-27T14:35:29.961Z,46.50
2023-04-27T14:38:01.608Z,46.60
2023-04-27T14:40:32.212Z,46.70
2023-04-27T14:42:59.078Z,46.70
2023-04-27T14:45:30.903Z,46.80
2023-04-27T14:48:03.906Z,46.80
2023-04-27T14:50:30.682Z,46.80
2023-04-27T14:52:58.714Z,47.20
2023-04-27T14:55:25.407Z,47.20
2023-04-27T14:57:52.161Z,47.00
2023-04-27T15:00:19.082Z,47.30
2023-04-27T15:02:46.219Z,47.50
2023-04-27T15:05:12.974Z,47.40
2023-04-27T15:07:39.686Z,47.30
2023-04-27T15:10:07.131Z,47.20
2023-04-27T15:12:33.866Z,47.30
2023-04-27T15:15:00.955Z,47.40
2023-04-27T15:17:27.748Z,46.80
2023-04-27T15:19:54.677Z,46.90
2023-04-27T15:22:23.470Z,46.80
2023-04-27T15:24:50.856Z,46.70
2023-04-27T15:27:17.553Z,46.80
2023-04-27T15:29:44.155Z,46.90
2023-04-27T15:32:10.793Z,47.00
2023-04-27T15:34:37.506Z,47.00
2023-04-27T15:37:04.148Z,47.80
2023-04-27T15:39:30.987Z,47.10
2023-04-27T15:41:59.545Z,47.10
2023-04-27T15:44:26.899Z,47.00
2023-04-27T15:46:53.801Z,47.10
2023-04-27T15:49:20.923Z,47.30
2023-04-27T15:51:47.651Z,47.40
2023-04-27T15:54:14.269Z,47.50
2023-04-27T15:56:41.048Z,47.40
2023-04-27T15:59:08.001Z,47.60
2023-04-27T16:01:34.734Z,47.60
2023-04-27T16:04:01.488Z,47.60
2023-04-27T16:06:36.326Z,47.50
2023-04-27T16:09:03.999Z,47.40
2023-04-27T16:11:31.646Z,47.40
2023-04-27T16:13:59.340Z,47.20
2023-04-27T16:16:26.709Z,47.40
2023-04-27T16:18:53.515Z,47.30
2023-04-27T16:21:20.318Z,47.30
2023-04-27T16:23:47.038Z,47.40
2023-04-27T16:26:13.670Z,47.60
2023-04-27T16:28:41.074Z,47.80
2023-04-27T16:31:07.961Z,47.70
2023-04-27T16:33:34.714Z,47.80
2023-04-27T16:36:01.488Z,48.00
2023-04-27T16:38:28.157Z,48.00
2023-04-27T16:40:56.018Z,47.90
2023-04-27T16:43:22.745Z,47.50
2023-04-27T16:45:49.418Z,47.40
2023-04-27T16:48:16.358Z,47.40
2023-04-27T16:50:43.001Z,47.60
2023-04-27T16:53:13.507Z,47.70
2023-04-27T16:55:40.462Z,48.20
2023-04-27T16:58:07.566Z,47.70
2023-04-27T17:00:34.293Z,47.80
2023-04-27T17:03:01.057Z,48.00
2023-04-27T17:05:27.844Z,48.20
2023-04-27T17:07:54.487Z,48.20
2023-04-27T17:10:21.259Z,48.20
2023-04-27T17:12:47.970Z,48.20
2023-04-27T17:15:14.734Z,48.40
2023-04-27T17:17:41.449Z,48.50
2023-04-27T17:20:09.524Z,48.60
2023-04-27T17:22:36.650Z,48.60
2023-04-27T17:25:04.000Z,48.60
2023-04-27T17:27:30.815Z,48.70
2023-04-27T17:29:57.988Z,48.80
2023-04-27T17:32:24.746Z,48.90
2023-04-27T17:34:52.399Z,49.00
2023-04-27T17:37:19.026Z,49.20
2023-04-27T17:39:46.207Z,49.20
2023-04-27T17:42:12.911Z,49.20
2023-04-27T17:44:41.118Z,49.20
2023-04-27T17:47:08.385Z,49.20
2023-04-27T17:49:35.936Z,49.30
2023-04-27T17:52:03.022Z,49.40
2023-04-27T17:54:30.308Z,49.50
2023-04-27T17:56:57.197Z,49.60
2023-04-27T17:59:24.809Z,49.90
2023-04-27T18:01:51.532Z,50.00
2023-04-27T18:04:18.692Z,50.00
2023-04-27T18:06:45.540Z,50.10
2023-04-27T18:09:12.491Z,50.20
2023-04-27T18:11:39.408Z,50.30
2023-04-27T18:14:06.106Z,50.40
2023-04-27T18:16:32.937Z,50.50
2023-04-27T18:18:59.724Z,50.80
2023-04-27T18:21:28.249Z,50.90
2023-04-27T18:23:56.079Z,51.00
2023-04-27T18:26:22.969Z,51.20
2023-04-27T18:28:49.763Z,51.30
2023-04-27T18:31:17.304Z,51.40
2023-04-27T18:33:44.913Z,51.50
2023-04-27T18:36:11.928Z,51.60
2023-04-27T18:38:38.723Z,51.60
2023-04-27T18:41:05.599Z,51.60
2023-04-27T18:43:35.609Z,51.70
2023-04-27T18:46:03.127Z,52.50
2023-04-27T18:48:29.954Z,51.90
2023-04-27T18:50:56.841Z,52.00
2023-04-27T18:53:23.574Z,52.30
2023-04-27T18:55:50.276Z,52.40
2023-04-27T18:58:16.986Z,52.30
2023-04-27T19:00:43.673Z,52.50
2023-04-27T19:03:10.808Z,52.50
2023-04-27T19:05:40.787Z,52.50
2023-04-27T19:08:07.989Z,52.60
2023-04-27T19:10:34.850Z,52.50
2023-04-27T19:13:01.558Z,52.60
2023-04-27T19:15:28.352Z,52.60
2023-04-27T19:18:02.777Z,52.70
2023-04-27T19:20:36.540Z,52.80
2023-04-27T19:23:03.474Z,52.80
2023-04-27T19:25:30.159Z,52.80
2023-04-27T19:27:56.848Z,52.90
2023-04-27T19:30:23.608Z,52.80
2023-04-27T19:32:50.562Z,52.80
2023-04-27T19:35:18.582Z,52.80
2023-04-27T19:37:45.295Z,52.80
2023-04-27T19:40:12.344Z,52.80
2023-04-27T19:42:39.136Z,52.90
2023-04-27T19:45:06.910Z,53.00
2023-04-27T19:47:33.771Z,53.00
2023-04-27T19:50:00.456Z,53.20
2023-04-27T19:52:27.233Z,53.30
2023-04-27T19:54:54.493Z,53.30
2023-04-27T19:57:21.644Z,53.50
2023-04-27T19:59:48.474Z,53.50
2023-04-27T20:02:15.745Z,53.40
2023-04-27T20:04:43.058Z,53.40
2023-04-27T20:07:09.872Z,53.40
2023-04-27T20:09:36.721Z,53.50
2023-04-27T20:12:04.085Z,53.80
2023-04-27T20:14:33.504Z,53.70
2023-04-27T20:17:00.562Z,53.70
2023-04-27T20:19:27.214Z,53.90
2023-04-27T20:21:54.022Z,53.90
2023-04-27T20:24:20.744Z,53.90
2023-04-27T20:26:47.467Z,53.90
2023-04-27T20:29:14.342Z,53.80
2023-04-27T20:31:41.207Z,53.90
2023-04-27T20:34:07.977Z,53.80
2023-04-27T20:36:34.616Z,53.90
2023-04-27T20:39:01.298Z,53.90
2023-04-27T20:41:28.401Z,53.90
2023-04-27T20:43:55.347Z,53.90
2023-04-27T20:46:22.123Z,53.90
2023-04-27T20:48:48.738Z,53.90
2023-04-27T20:51:15.356Z,53.90
2023-04-27T20:53:42.016Z,53.90
2023-04-27T20:56:09.057Z,54.00
2023-04-27T20:58:36.017Z,54.10
2023-04-27T21:01:02.742Z,54.10
2023-04-27T21:03:29.626Z,54.10
2023-04-27T21:05:56.385Z,54.20
2023-04-27T21:08:23.020Z,54.30
2023-04-27T21:10:49.903Z,54.40
2023-04-27T21:13:16.555Z,54.50
2023-04-27T21:15:43.215Z,54.60
2023-04-27T21:18:18.916Z,54.60
2023-04-27T21:20:55.460Z,54.60
2023-04-27T21:23:22.140Z,54.60
2023-04-27T21:25:48.776Z,54.70
2023-04-27T21:28:15.472Z,54.80
2023-04-27T21:30:42.182Z,54.80
2023-04-27T21:33:08.992Z,54.70
2023-04-27T21:35:36.094Z,54.70
2023-04-27T21:38:02.792Z,54.80
2023-04-27T21:40:29.554Z,54.80
2023-04-27T21:42:56.426Z,54.80
2023-04-27T21:45:23.274Z,54.90
2023-04-27T21:47:50.001Z,55.00
2023-04-27T21:50:16.782Z,55.10
2023-04-27T21:52:43.502Z,55.10
2023-04-27T21:55:10.915Z,55.10
2023-04-27T21:57:37.817Z,55.20
2023-04-27T22:00:13.049Z,55.20
2023-04-27T22:02:44.634Z,55.30
2023-04-27T22:05:11.718Z,55.30
2023-04-27T22:07:38.416Z,55.40
2023-04-27T22:10:05.725Z,55.50
2023-04-27T22:12:33.392Z,55.50
2023-04-27T22:15:00.364Z,55.60
2023-04-27T22:17:27.626Z,55.60
2023-04-27T22:19:54.677Z,55.70
2023-04-27T22:22:21.537Z,55.80
2023-04-27T22:24:48.580Z,55.80
2023-04-27T22:27:15.592Z,55.90
2023-04-27T22:29:42.233Z,56.50
2023-04-27T22:32:09.750Z,55.90
2023-04-27T22:34:37.186Z,56.00
2023-04-27T22:37:04.035Z,56.10
2023-04-27T22:39:31.623Z,56.10
2023-04-27T22:41:58.337Z,56.20
2023-04-27T22:44:25.770Z,56.30
2023-04-27T22:46:52.718Z,56.40
2023-04-27T22:49:19.515Z,56.50
2023-04-27T22:51:47.110Z,56.60
2023-04-27T22:54:14.618Z,56.60
2023-04-27T22:56:41.621Z,56.70
2023-04-27T22:59:09.416Z,56.70
2023-04-27T23:01:36.173Z,56.90
2023-04-27T23:04:03.132Z,56.90
2023-04-27T23:06:30.222Z,57.00
2023-04-27T23:08:57.220Z,57.00
2023-04-27T23:11:23.906Z,57.10
2023-04-27T23:13:50.679Z,57.20
2023-04-27T23:16:17.409Z,57.30
2023-04-27T23:18:44.302Z,57.30
2023-04-27T23:21:11.513Z,57.40
2023-04-27T23:23:38.288Z,57.60
2023-04-27T23:26:15.012Z,57.60
2023-04-27T23:28:42.510Z,57.80
2023-04-27T23:31:09.797Z,57.70
2023-04-27T23:33:36.778Z,57.80
2023-04-27T23:36:04.447Z,57.70
2023-04-27T23:38:31.431Z,57.70
2023-04-27T23:43:45.522Z,57.90
2023-04-27T23:46:12.559Z,57.90
2023-04-27T23:48:39.297Z,58.00
2023-04-27T23:51:06.083Z,58.00
2023-04-27T23:53:32.762Z,58.10
2023-04-27T23:55:59.416Z,58.20
2023-04-27T23:58:26.661Z,58.20
